Authier-Nord, Canada
Current Conditions -  °F | °C
As of 10:00 AM on Saturday 20 Dec 2014 (Local Time) from CYUY Reporting Station
Ice Pellets Ice Pellets  
Wind Chill: -2°   Ceiling: Unl
Heat Index: -2°   Visibility: 10mi
Dew Point: -6°   Wind: 0mph
Humidity: 85%   Direction: NA
Pressure: 30.32"   Gusts: NA
Location:  48.83°N, 78.87°W
Report Text: CYUY 201500Z 00000KT 10SM IC SCT030 M19/M21 A3032 RMK SC3 SLP304
Loading
Personal Weather Stations






























Interactive Weather Map New forecast layout! Learn more

10-Day Weather Forecast

Advertisements
Track Severe Weather on mobile